createdAt,value
2018-02-05T00:00:45.399Z,1016.4
2018-02-05T00:01:47.195Z,1016.4
2018-02-05T00:02:48.625Z,1016.5
2018-02-05T00:03:50.785Z,1016.5
2018-02-05T00:04:52.484Z,1016.4
2018-02-05T00:05:54.179Z,1016.4
2018-02-05T00:06:55.633Z,1016.4
2018-02-05T00:07:57.044Z,1016.5
2018-02-05T00:08:58.746Z,1016.5
2018-02-05T00:10:00.494Z,1016.5
2018-02-05T00:11:01.983Z,1016.5
2018-02-05T00:12:03.688Z,1016.5
2018-02-05T00:13:05.131Z,1016.5
2018-02-05T00:14:06.722Z,1016.5
2018-02-05T00:15:08.271Z,1016.5
2018-02-05T00:16:09.806Z,1016.6
2018-02-05T00:17:11.290Z,1016.5
2018-02-05T00:18:12.783Z,1016.5
2018-02-05T00:19:14.244Z,1016.5
2018-02-05T00:20:16.031Z,1016.5
2018-02-05T00:21:17.435Z,1016.5
2018-02-05T00:22:18.843Z,1016.5
2018-02-05T00:23:20.700Z,1016.5
2018-02-05T00:24:22.194Z,1016.6
2018-02-05T00:25:23.691Z,1016.6
2018-02-05T00:26:25.347Z,1016.6
2018-02-05T00:27:26.867Z,1016.6
2018-02-05T00:28:28.371Z,1016.6
2018-02-05T00:29:29.740Z,1016.7
2018-02-05T00:30:31.156Z,1016.7
2018-02-05T00:31:32.619Z,1016.6
2018-02-05T00:32:34.033Z,1016.6
2018-02-05T00:33:35.448Z,1016.6
2018-02-05T00:34:36.924Z,1016.7
2018-02-05T00:35:38.615Z,1016.6
2018-02-05T00:36:40.534Z,1016.7
2018-02-05T00:37:42.416Z,1016.6
2018-02-05T00:38:44.481Z,1016.7
2018-02-05T00:39:46.073Z,1016.7
2018-02-05T00:40:47.600Z,1016.7
2018-02-05T00:41:49.280Z,1016.7
2018-02-05T00:42:50.988Z,1016.7
2018-02-05T00:43:52.994Z,1016.7
2018-02-05T00:44:54.462Z,1016.7
2018-02-05T00:45:56.838Z,1016.8
2018-02-05T00:46:58.572Z,1016.8
2018-02-05T00:48:00.021Z,1016.8
2018-02-05T00:49:01.452Z,1016.8
2018-02-05T00:50:03.273Z,1016.8
2018-02-05T00:51:04.689Z,1016.8
2018-02-05T00:52:06.253Z,1016.8
2018-02-05T00:53:07.659Z,1016.8
2018-02-05T00:54:09.112Z,1016.8
2018-02-05T00:55:10.887Z,1016.8
2018-02-05T00:56:13.609Z,1016.8
2018-02-05T00:57:15.220Z,1016.8
2018-02-05T00:58:16.873Z,1016.8
2018-02-05T00:59:18.451Z,1016.7
2018-02-05T01:00:20.176Z,1016.8
2018-02-05T01:01:21.936Z,1016.8
2018-02-05T01:02:23.575Z,1016.8
2018-02-05T01:03:25.063Z,1016.8
2018-02-05T01:04:26.510Z,1016.8
2018-02-05T01:05:27.970Z,1016.8
2018-02-05T01:06:29.793Z,1016.8
2018-02-05T01:07:31.479Z,1016.8
2018-02-05T01:08:32.960Z,1016.8
2018-02-05T01:09:34.525Z,1016.8
2018-02-05T01:10:35.937Z,1016.8
2018-02-05T01:11:37.661Z,1016.8
2018-02-05T01:12:39.024Z,1016.8
2018-02-05T01:13:40.829Z,1016.8
2018-02-05T01:14:42.329Z,1016.8
2018-02-05T01:15:43.771Z,1016.8
2018-02-05T01:16:45.158Z,1016.8
2018-02-05T01:17:47.277Z,1016.8
2018-02-05T01:18:49.072Z,1016.8
2018-02-05T01:19:50.764Z,1016.7
2018-02-05T01:20:52.237Z,1016.8
2018-02-05T01:21:53.712Z,1016.7
2018-02-05T01:22:55.761Z,1016.7
2018-02-05T01:23:57.629Z,1016.7
2018-02-05T01:24:59.579Z,1016.7
2018-02-05T01:26:01.022Z,1016.7
2018-02-05T01:27:02.505Z,1016.7
2018-02-05T01:28:04.456Z,1016.7
2018-02-05T01:29:05.936Z,1016.7
2018-02-05T01:30:07.361Z,1016.7
2018-02-05T01:31:08.781Z,1016.7
2018-02-05T01:32:10.405Z,1016.7
2018-02-05T01:33:12.195Z,1016.8
2018-02-05T01:34:13.609Z,1016.8
2018-02-05T01:35:15.063Z,1016.7
2018-02-05T01:36:16.787Z,1016.7
2018-02-05T01:37:18.413Z,1016.7
2018-02-05T01:38:19.952Z,1016.7
2018-02-05T01:39:21.400Z,1016.7
2018-02-05T01:40:22.947Z,1016.7
2018-02-05T01:41:24.341Z,1016.7
2018-02-05T01:42:25.804Z,1016.7
2018-02-05T01:43:27.210Z,1016.7
2018-02-05T01:44:28.606Z,1016.7
2018-02-05T01:45:30.117Z,1016.7
2018-02-05T01:46:31.961Z,1016.7
2018-02-05T01:47:33.614Z,1016.7
2018-02-05T01:48:35.290Z,1016.7
2018-02-05T01:49:36.729Z,1016.7
2018-02-05T01:50:38.197Z,1016.7
2018-02-05T01:51:39.664Z,1016.7
2018-02-05T01:52:41.080Z,1016.7
2018-02-05T01:53:42.649Z,1016.7
2018-02-05T01:54:44.308Z,1016.7
2018-02-05T01:55:45.847Z,1016.7
2018-02-05T01:56:47.252Z,1016.7
2018-02-05T01:57:48.630Z,1016.7
2018-02-05T01:58:50.043Z,1016.7
2018-02-05T01:59:51.500Z,1016.7
2018-02-05T02:00:52.979Z,1016.7
2018-02-05T02:01:54.408Z,1016.7
2018-02-05T02:02:55.926Z,1016.7
2018-02-05T02:03:57.421Z,1016.7
2018-02-05T02:04:59.035Z,1016.7
2018-02-05T02:06:00.467Z,1016.7
2018-02-05T02:07:01.895Z,1016.7
2018-02-05T02:08:03.398Z,1016.7
2018-02-05T02:09:04.834Z,1016.7
2018-02-05T02:10:06.306Z,1016.7
2018-02-05T02:11:07.814Z,1016.6
2018-02-05T02:12:09.231Z,1016.6
2018-02-05T02:13:10.742Z,1016.6
2018-02-05T02:14:12.126Z,1016.6
2018-02-05T02:15:13.564Z,1016.6
2018-02-05T02:16:15.124Z,1016.6
2018-02-05T02:17:16.807Z,1016.6
2018-02-05T02:18:18.551Z,1016.6
2018-02-05T02:19:20.178Z,1016.6
2018-02-05T02:20:22.386Z,1016.7
2018-02-05T02:21:23.819Z,1016.7
2018-02-05T02:22:25.283Z,1016.7
2018-02-05T02:23:26.710Z,1016.7
2018-02-05T02:24:28.147Z,1016.7
2018-02-05T02:25:29.592Z,1016.7
2018-02-05T02:26:31.041Z,1016.7
2018-02-05T02:27:32.762Z,1016.7
2018-02-05T02:28:34.501Z,1016.7
2018-02-05T02:29:36.318Z,1016.7
2018-02-05T02:30:37.809Z,1016.7
2018-02-05T02:31:39.228Z,1016.7
2018-02-05T02:32:40.766Z,1016.7
2018-02-05T02:33:42.390Z,1016.7
2018-02-05T02:34:44.808Z,1016.7
2018-02-05T02:35:46.378Z,1016.7
2018-02-05T02:36:47.840Z,1016.7
2018-02-05T02:37:49.539Z,1016.7
2018-02-05T02:38:51.377Z,1016.7
2018-02-05T02:39:52.890Z,1016.7
2018-02-05T02:40:54.650Z,1016.7
2018-02-05T02:41:56.452Z,1016.8
2018-02-05T02:42:58.194Z,1016.8
2018-02-05T02:44:00.490Z,1016.8
2018-02-05T02:45:02.166Z,1016.8
2018-02-05T02:46:04.025Z,1016.8
2018-02-05T02:47:05.707Z,1016.8
2018-02-05T02:48:07.535Z,1016.8
2018-02-05T02:49:08.949Z,1016.8
2018-02-05T02:50:10.400Z,1016.8
2018-02-05T02:51:11.931Z,1016.8
2018-02-05T02:52:13.388Z,1016.8
2018-02-05T02:53:15.087Z,1016.8
2018-02-05T02:54:17.377Z,1016.9
2018-02-05T02:55:18.771Z,1016.9
2018-02-05T02:56:20.140Z,1016.8
2018-02-05T02:57:21.817Z,1016.9
2018-02-05T02:58:23.314Z,1016.9
2018-02-05T02:59:24.764Z,1016.8
2018-02-05T03:00:26.315Z,1016.8
2018-02-05T03:01:27.767Z,1016.9
2018-02-05T03:02:29.228Z,1016.8
2018-02-05T03:03:30.698Z,1016.8
2018-02-05T03:04:32.264Z,1016.9
2018-02-05T03:05:33.655Z,1016.9
2018-02-05T03:06:35.398Z,1016.9
2018-02-05T03:07:36.852Z,1016.9
2018-02-05T03:08:38.261Z,1016.9
2018-02-05T03:09:39.722Z,1016.9
2018-02-05T03:10:41.311Z,1016.9
2018-02-05T03:11:42.791Z,1016.9
2018-02-05T03:12:44.346Z,1016.9
2018-02-05T03:13:45.924Z,1016.9
2018-02-05T03:14:47.415Z,1017.0
2018-02-05T03:15:49.299Z,1017.0
2018-02-05T03:16:50.754Z,1017.0
2018-02-05T03:17:52.183Z,1016.9
2018-02-05T03:18:53.685Z,1016.9
2018-02-05T03:19:55.134Z,1016.9
2018-02-05T03:20:57.071Z,1016.9
2018-02-05T03:21:58.469Z,1016.9
2018-02-05T03:23:00.102Z,1016.9
2018-02-05T03:24:01.817Z,1016.9
2018-02-05T03:25:03.236Z,1016.9
2018-02-05T03:26:05.141Z,1016.9
2018-02-05T03:27:06.554Z,1016.9
2018-02-05T03:28:08.138Z,1016.9
2018-02-05T03:29:09.574Z,1016.9
2018-02-05T03:30:11.121Z,1016.9
2018-02-05T03:31:12.668Z,1016.9
2018-02-05T03:32:14.527Z,1016.9
2018-02-05T03:33:16.023Z,1016.9
2018-02-05T03:34:17.486Z,1016.9
2018-02-05T03:35:19.254Z,1016.9
2018-02-05T03:36:20.928Z,1016.9
2018-02-05T03:37:22.661Z,1016.9
2018-02-05T03:38:24.346Z,1016.9
2018-02-05T03:39:25.839Z,1017.0
2018-02-05T03:40:27.390Z,1016.9
2018-02-05T03:41:28.939Z,1017.0
2018-02-05T03:42:31.148Z,1017.0
2018-02-05T03:43:33.202Z,1017.0
2018-02-05T03:44:34.653Z,1017.0
2018-02-05T03:45:36.090Z,1017.0
2018-02-05T03:46:37.539Z,1017.1
2018-02-05T03:47:39.019Z,1017.1
2018-02-05T03:48:40.420Z,1017.1
2018-02-05T03:49:41.950Z,1017.1
2018-02-05T03:50:43.388Z,1017.1
2018-02-05T03:51:44.874Z,1017.1
2018-02-05T03:52:46.394Z,1017.1
2018-02-05T03:53:47.809Z,1017.1
2018-02-05T03:54:49.263Z,1017.1
2018-02-05T03:55:50.732Z,1017.1
2018-02-05T03:56:52.165Z,1017.1
2018-02-05T03:57:53.655Z,1017.1
2018-02-05T03:58:55.069Z,1017.2
2018-02-05T03:59:56.602Z,1017.2
2018-02-05T04:00:58.047Z,1017.2
2018-02-05T04:01:59.486Z,1017.2
2018-02-05T04:03:00.984Z,1017.3
2018-02-05T04:04:02.390Z,1017.3
2018-02-05T04:05:03.842Z,1017.3
2018-02-05T04:06:05.341Z,1017.3
2018-02-05T04:07:06.812Z,1017.3
2018-02-05T04:08:08.230Z,1017.3
2018-02-05T04:09:09.833Z,1017.4
2018-02-05T04:10:11.569Z,1017.3
2018-02-05T04:11:13.368Z,1017.4
2018-02-05T04:12:14.837Z,1017.4
2018-02-05T04:13:16.290Z,1017.3
2018-02-05T04:14:17.841Z,1017.3
2018-02-05T04:15:19.216Z,1017.3
2018-02-05T04:16:20.624Z,1017.4
2018-02-05T04:17:22.087Z,1017.4
2018-02-05T04:18:23.993Z,1017.4
2018-02-05T04:19:25.381Z,1017.4
2018-02-05T04:20:26.871Z,1017.4
2018-02-05T04:21:28.292Z,1017.4
2018-02-05T04:22:29.718Z,1017.4
2018-02-05T04:23:31.212Z,1017.4
2018-02-05T04:24:32.576Z,1017.5
2018-02-05T04:25:34.048Z,1017.4
2018-02-05T04:26:35.648Z,1017.5
2018-02-05T04:27:37.212Z,1017.5
2018-02-05T04:28:38.622Z,1017.5
2018-02-05T04:29:40.096Z,1017.5
2018-02-05T04:30:41.795Z,1017.5
2018-02-05T04:31:43.482Z,1017.5
2018-02-05T04:32:45.370Z,1017.5
2018-02-05T04:33:47.152Z,1017.5
2018-02-05T04:34:48.679Z,1017.5
2018-02-05T04:35:50.071Z,1017.5
2018-02-05T04:36:51.780Z,1017.5
2018-02-05T04:37:53.648Z,1017.6
2018-02-05T04:38:55.319Z,1017.6
2018-02-05T04:39:56.834Z,1017.6
2018-02-05T04:40:58.548Z,1017.6
2018-02-05T04:41:59.992Z,1017.5
2018-02-05T04:43:01.436Z,1017.6
2018-02-05T04:44:03.246Z,1017.6
2018-02-05T04:45:04.921Z,1017.6
2018-02-05T04:46:06.662Z,1017.6
2018-02-05T04:47:08.353Z,1017.6
2018-02-05T04:48:10.251Z,1017.6
2018-02-05T04:49:11.969Z,1017.6
2018-02-05T04:50:13.652Z,1017.5
2018-02-05T04:51:15.260Z,1017.6
2018-02-05T04:52:16.746Z,1017.6
2018-02-05T04:53:18.398Z,1017.6
2018-02-05T04:54:20.211Z,1017.6
2018-02-05T04:55:22.176Z,1017.6
2018-02-05T04:56:23.870Z,1017.6
2018-02-05T04:57:25.733Z,1017.6
2018-02-05T04:58:27.249Z,1017.6
2018-02-05T04:59:28.730Z,1017.6
2018-02-05T05:00:30.552Z,1017.7
2018-02-05T05:01:32.178Z,1017.7
2018-02-05T05:02:33.678Z,1017.7
2018-02-05T05:03:35.336Z,1017.7
2018-02-05T05:04:37.148Z,1017.6
2018-02-05T05:05:38.888Z,1017.7
2018-02-05T05:06:40.339Z,1017.6
2018-02-05T05:07:42.043Z,1017.7
2018-02-05T05:08:43.709Z,1017.7
2018-02-05T05:09:45.355Z,1017.6
2018-02-05T05:10:46.852Z,1017.6
2018-02-05T05:11:48.600Z,1017.7
2018-02-05T05:13:02.690Z,1017.6
2018-02-05T05:14:04.098Z,1017.6
2018-02-05T05:15:05.639Z,1017.6
2018-02-05T05:16:07.426Z,1017.6
2018-02-05T05:17:09.341Z,1017.6
2018-02-05T05:18:10.989Z,1017.6
2018-02-05T05:19:12.423Z,1017.6
2018-02-05T05:20:13.968Z,1017.6
2018-02-05T05:21:15.548Z,1017.7
2018-02-05T05:22:17.248Z,1017.7
2018-02-05T05:23:18.897Z,1017.7
2018-02-05T05:24:20.364Z,1017.6
2018-02-05T05:25:21.956Z,1017.7
2018-02-05T05:26:23.569Z,1017.7
2018-02-05T05:27:25.415Z,1017.7
2018-02-05T05:28:26.869Z,1017.7
2018-02-05T05:29:28.306Z,1017.6
2018-02-05T05:30:29.732Z,1017.7
2018-02-05T05:31:31.428Z,1017.7
2018-02-05T05:32:32.996Z,1017.7
2018-02-05T05:33:34.456Z,1017.7
2018-02-05T05:34:36.085Z,1017.7
2018-02-05T05:35:37.668Z,1017.7
2018-02-05T05:36:39.401Z,1017.7
2018-02-05T05:37:41.004Z,1017.7
2018-02-05T05:38:42.623Z,1017.7
2018-02-05T05:39:44.356Z,1017.7
2018-02-05T05:40:45.894Z,1017.7
2018-02-05T05:41:47.645Z,1017.7
2018-02-05T05:42:49.380Z,1017.7
2018-02-05T05:43:50.882Z,1017.7
2018-02-05T05:44:52.413Z,1017.7
2018-02-05T05:45:53.831Z,1017.8
2018-02-05T05:46:55.264Z,1017.8
2018-02-05T05:47:56.815Z,1017.8
2018-02-05T05:48:58.304Z,1017.8
2018-02-05T05:49:59.828Z,1017.8
2018-02-05T05:51:01.353Z,1017.8
2018-02-05T05:52:02.843Z,1017.8
2018-02-05T05:53:04.283Z,1017.8
2018-02-05T05:54:05.981Z,1017.8
2018-02-05T05:55:07.778Z,1017.8
2018-02-05T05:56:09.181Z,1017.7
2018-02-05T05:57:10.672Z,1017.7
2018-02-05T05:58:12.166Z,1017.8
2018-02-05T05:59:13.632Z,1017.8
2018-02-05T06:00:15.320Z,1017.8
2018-02-05T06:01:16.763Z,1017.8
2018-02-05T06:02:18.179Z,1017.8
2018-02-05T06:03:19.580Z,1017.8
2018-02-05T06:04:21.069Z,1017.8
2018-02-05T06:05:22.630Z,1017.8
2018-02-05T06:06:24.061Z,1017.8
2018-02-05T06:07:25.529Z,1017.8
2018-02-05T06:08:26.961Z,1017.8
2018-02-05T06:09:28.551Z,1017.8
2018-02-05T06:10:29.949Z,1017.8
2018-02-05T06:11:31.442Z,1017.8
2018-02-05T06:12:32.871Z,1017.8
2018-02-05T06:13:34.334Z,1017.8
2018-02-05T06:14:35.955Z,1017.8
2018-02-05T06:15:37.734Z,1017.8
2018-02-05T06:16:39.430Z,1017.8
2018-02-05T06:17:41.129Z,1017.8
2018-02-05T06:18:42.747Z,1017.8
2018-02-05T06:19:44.277Z,1017.8
2018-02-05T06:20:45.933Z,1017.9
2018-02-05T06:21:47.412Z,1017.9
2018-02-05T06:22:48.838Z,1017.9
2018-02-05T06:23:50.323Z,1018.0
2018-02-05T06:24:51.848Z,1018.0
2018-02-05T06:25:53.543Z,1018.0
2018-02-05T06:26:55.353Z,1018.0
2018-02-05T06:27:56.790Z,1018.0
2018-02-05T06:28:58.221Z,1018.0
2018-02-05T06:29:59.784Z,1018.0
2018-02-05T06:31:01.470Z,1018.1
2018-02-05T06:32:02.936Z,1018.0
2018-02-05T06:33:04.383Z,1018.0
2018-02-05T06:34:06.096Z,1018.0
2018-02-05T06:35:07.631Z,1018.0
2018-02-05T06:36:09.085Z,1018.1
2018-02-05T06:37:10.563Z,1018.0
2018-02-05T06:38:12.030Z,1018.0
2018-02-05T06:39:13.493Z,1018.0
2018-02-05T06:40:14.909Z,1018.0
2018-02-05T06:41:16.352Z,1018.0
2018-02-05T06:42:17.785Z,1018.0
2018-02-05T06:43:19.258Z,1018.0
2018-02-05T06:44:20.662Z,1018.0
2018-02-05T06:45:22.215Z,1018.0
2018-02-05T06:46:23.664Z,1018.0
2018-02-05T06:47:25.106Z,1018.0
2018-02-05T06:48:26.639Z,1018.0
2018-02-05T06:49:28.101Z,1018.0
2018-02-05T06:50:29.586Z,1018.0
2018-02-05T06:51:31.045Z,1018.1
2018-02-05T06:52:32.548Z,1018.1
2018-02-05T06:53:33.930Z,1018.1
2018-02-05T06:54:35.389Z,1018.1
2018-02-05T06:55:36.841Z,1018.1
2018-02-05T06:56:38.309Z,1018.1
2018-02-05T06:57:39.749Z,1018.1
2018-02-05T06:58:41.205Z,1018.1
2018-02-05T06:59:42.633Z,1018.1
2018-02-05T07:00:44.113Z,1018.1
2018-02-05T07:01:45.551Z,1018.1
2018-02-05T07:02:46.981Z,1018.1
2018-02-05T07:03:48.461Z,1018.2
2018-02-05T07:04:49.883Z,1018.2
2018-02-05T07:05:51.647Z,1018.2
2018-02-05T07:06:53.081Z,1018.2
2018-02-05T07:07:54.520Z,1018.2
2018-02-05T07:08:55.958Z,1018.2
2018-02-05T07:09:57.392Z,1018.2
2018-02-05T07:10:58.898Z,1018.2
2018-02-05T07:12:00.334Z,1018.2
2018-02-05T07:13:01.852Z,1018.2
2018-02-05T07:14:03.372Z,1018.2
2018-02-05T07:15:04.838Z,1018.2
2018-02-05T07:16:06.320Z,1018.2
2018-02-05T07:17:07.748Z,1018.2
2018-02-05T07:18:09.187Z,1018.3
2018-02-05T07:19:10.607Z,1018.3
2018-02-05T07:20:12.045Z,1018.3
2018-02-05T07:21:13.467Z,1018.2
2018-02-05T07:22:14.937Z,1018.3
2018-02-05T07:23:16.437Z,1018.3
2018-02-05T07:24:17.823Z,1018.3
2018-02-05T07:25:19.266Z,1018.3
2018-02-05T07:26:20.715Z,1018.3
2018-02-05T07:27:22.170Z,1018.3
2018-02-05T07:28:23.611Z,1018.3
2018-02-05T07:29:25.249Z,1018.3
2018-02-05T07:30:27.010Z,1018.3
2018-02-05T07:31:28.745Z,1018.3
2018-02-05T07:32:30.418Z,1018.3
2018-02-05T07:33:32.164Z,1018.3
2018-02-05T07:34:33.873Z,1018.3
2018-02-05T07:35:35.355Z,1018.3
2018-02-05T07:36:36.800Z,1018.3
2018-02-05T07:37:38.314Z,1018.3
2018-02-05T07:38:39.754Z,1018.3
2018-02-05T07:39:41.163Z,1018.3
2018-02-05T07:40:42.702Z,1018.3
2018-02-05T07:41:44.192Z,1018.3
2018-02-05T07:42:45.676Z,1018.4
2018-02-05T07:43:47.165Z,1018.3
2018-02-05T07:44:48.589Z,1018.3
2018-02-05T07:45:50.051Z,1018.4
2018-02-05T07:46:51.610Z,1018.4
2018-02-05T07:47:53.051Z,1018.3
2018-02-05T07:48:54.498Z,1018.4
2018-02-05T07:49:55.925Z,1018.4
2018-02-05T07:50:57.401Z,1018.4
2018-02-05T07:51:58.845Z,1018.4
2018-02-05T07:53:00.261Z,1018.4
2018-02-05T07:54:01.964Z,1018.4
2018-02-05T07:55:03.374Z,1018.4
2018-02-05T07:56:04.840Z,1018.5
2018-02-05T07:57:06.334Z,1018.5
2018-02-05T07:58:07.672Z,1018.5
2018-02-05T07:59:09.298Z,1018.5
2018-02-05T08:00:11.098Z,1018.4
2018-02-05T08:01:12.797Z,1018.5
2018-02-05T08:02:14.472Z,1018.4
2018-02-05T08:03:15.864Z,1018.5
2018-02-05T08:04:17.354Z,1018.5
2018-02-05T08:05:18.810Z,1018.5
2018-02-05T08:06:20.303Z,1018.5
2018-02-05T08:07:21.859Z,1018.6
2018-02-05T08:08:23.337Z,1018.6
2018-02-05T08:09:24.790Z,1018.6
2018-02-05T08:10:26.224Z,1018.6
2018-02-05T08:11:27.905Z,1018.6
2018-02-05T08:12:29.524Z,1018.6
2018-02-05T08:13:31.080Z,1018.6
2018-02-05T08:14:32.496Z,1018.6
2018-02-05T08:15:33.933Z,1018.6
2018-02-05T08:16:35.371Z,1018.6
2018-02-05T08:17:37.015Z,1018.6
2018-02-05T08:18:38.699Z,1018.5
2018-02-05T08:19:40.230Z,1018.6
2018-02-05T08:20:41.787Z,1018.6
2018-02-05T08:21:43.208Z,1018.6
2018-02-05T08:22:44.689Z,1018.6
2018-02-05T08:23:46.146Z,1018.6
2018-02-05T08:24:47.566Z,1018.6
2018-02-05T08:25:49.025Z,1018.6
2018-02-05T08:26:50.574Z,1018.6
2018-02-05T08:27:52.149Z,1018.6
2018-02-05T08:28:53.586Z,1018.6
2018-02-05T08:29:54.994Z,1018.7
2018-02-05T08:30:56.505Z,1018.6
2018-02-05T08:31:57.967Z,1018.7
2018-02-05T08:32:59.521Z,1018.7
2018-02-05T08:34:00.971Z,1018.7
2018-02-05T08:35:02.506Z,1018.7
2018-02-05T08:36:03.968Z,1018.8
2018-02-05T08:37:05.384Z,1018.8
2018-02-05T08:38:06.869Z,1018.8
2018-02-05T08:39:08.340Z,1018.8
2018-02-05T08:40:09.749Z,1018.8
2018-02-05T08:41:11.194Z,1018.9
2018-02-05T08:42:12.721Z,1018.8
2018-02-05T08:43:14.194Z,1018.9
2018-02-05T08:44:15.666Z,1018.9
2018-02-05T08:45:17.359Z,1018.8
2018-02-05T08:46:19.012Z,1018.7
2018-02-05T08:47:20.461Z,1018.7
2018-02-05T08:48:21.950Z,1018.8
2018-02-05T08:49:23.455Z,1018.8
2018-02-05T08:50:25.072Z,1018.8
2018-02-05T08:51:26.670Z,1018.8
2018-02-05T08:52:28.121Z,1018.8
2018-02-05T08:53:29.671Z,1018.7
2018-02-05T08:54:31.147Z,1018.7
2018-02-05T08:55:32.894Z,1018.7
2018-02-05T08:56:34.414Z,1018.7
2018-02-05T08:57:35.988Z,1018.7
2018-02-05T08:58:37.410Z,1018.7
2018-02-05T08:59:38.857Z,1018.7
2018-02-05T09:00:40.550Z,1018.7
2018-02-05T09:01:42.035Z,1018.7
2018-02-05T09:02:43.482Z,1018.6
2018-02-05T09:03:44.938Z,1018.6
2018-02-05T09:04:46.609Z,1018.6
2018-02-05T09:05:48.026Z,1018.6
2018-02-05T09:06:49.532Z,1018.5
2018-02-05T09:07:50.994Z,1018.5
2018-02-05T09:08:52.464Z,1018.6
2018-02-05T09:09:53.903Z,1018.6
2018-02-05T09:10:55.334Z,1018.6
2018-02-05T09:11:57.024Z,1018.5
2018-02-05T09:12:58.758Z,1018.6
2018-02-05T09:14:00.236Z,1018.5
2018-02-05T09:15:01.700Z,1018.5
2018-02-05T09:16:03.165Z,1018.5
2018-02-05T09:17:04.574Z,1018.5
2018-02-05T09:18:06.035Z,1018.6
2018-02-05T09:19:07.523Z,1018.6
2018-02-05T09:20:09.053Z,1018.5
2018-02-05T09:21:10.514Z,1018.6
2018-02-05T09:22:12.147Z,1018.6
2018-02-05T09:23:13.586Z,1018.7
2018-02-05T09:24:15.018Z,1018.7
2018-02-05T09:25:16.474Z,1018.6
2018-02-05T09:26:17.937Z,1018.7
2018-02-05T09:27:19.391Z,1018.6
2018-02-05T09:28:20.862Z,1018.6
2018-02-05T09:29:22.326Z,1018.6
2018-02-05T09:30:23.781Z,1018.6
2018-02-05T09:31:25.274Z,1018.6
2018-02-05T09:32:26.779Z,1018.6
2018-02-05T09:33:28.408Z,1018.6
2018-02-05T09:34:29.837Z,1018.6
2018-02-05T09:35:31.579Z,1018.7
2018-02-05T09:36:33.203Z,1018.6
2018-02-05T09:37:34.647Z,1018.6
2018-02-05T09:38:36.094Z,1018.6
2018-02-05T09:39:37.814Z,1018.6
2018-02-05T09:40:39.513Z,1018.6
2018-02-05T09:41:40.969Z,1018.5
2018-02-05T09:42:42.604Z,1018.5
2018-02-05T09:43:44.332Z,1018.5
2018-02-05T09:44:45.795Z,1018.6
2018-02-05T09:45:47.290Z,1018.5
2018-02-05T09:46:48.819Z,1018.5
2018-02-05T09:47:50.511Z,1018.5
2018-02-05T09:48:51.954Z,1018.6
2018-02-05T09:49:53.400Z,1018.6
2018-02-05T09:50:54.840Z,1018.7
2018-02-05T09:51:56.292Z,1018.6
2018-02-05T09:52:57.979Z,1018.6
2018-02-05T09:53:59.460Z,1018.5
2018-02-05T09:55:00.844Z,1018.6
2018-02-05T09:56:02.245Z,1018.5
2018-02-05T09:57:03.777Z,1018.6
2018-02-05T09:58:05.226Z,1018.6
2018-02-05T09:59:06.969Z,1018.6
2018-02-05T10:00:08.407Z,1018.6
2018-02-05T10:01:09.843Z,1018.6
2018-02-05T10:02:11.230Z,1018.6
2018-02-05T10:03:12.638Z,1018.6
2018-02-05T10:04:14.100Z,1018.5
2018-02-05T10:05:15.888Z,1018.5
2018-02-05T10:06:17.357Z,1018.5
2018-02-05T10:07:19.003Z,1018.6
2018-02-05T10:08:20.751Z,1018.5
2018-02-05T10:09:22.241Z,1018.5
2018-02-05T10:10:23.951Z,1018.5
2018-02-05T10:11:25.418Z,1018.5
2018-02-05T10:12:26.899Z,1018.5
2018-02-05T10:13:28.530Z,1018.5
2018-02-05T10:14:29.951Z,1018.4
2018-02-05T10:15:31.379Z,1018.5
2018-02-05T10:16:32.835Z,1018.5
2018-02-05T10:17:34.261Z,1018.5
2018-02-05T10:18:35.971Z,1018.5
2018-02-05T10:19:37.484Z,1018.5
2018-02-05T10:20:38.941Z,1018.5
2018-02-05T10:21:40.408Z,1018.5
2018-02-05T10:22:41.842Z,1018.5
2018-02-05T10:23:43.281Z,1018.5
2018-02-05T10:24:44.702Z,1018.4
2018-02-05T10:25:46.188Z,1018.5
2018-02-05T10:26:47.647Z,1018.5
2018-02-05T10:27:49.110Z,1018.5
2018-02-05T10:28:50.528Z,1018.4
2018-02-05T10:29:52.001Z,1018.5
2018-02-05T10:30:53.380Z,1018.4
2018-02-05T10:31:54.841Z,1018.5
2018-02-05T10:32:56.269Z,1018.4
2018-02-05T10:33:57.724Z,1018.5
2018-02-05T10:34:59.140Z,1018.5
2018-02-05T10:36:00.558Z,1018.4
2018-02-05T10:37:02.371Z,1018.4
2018-02-05T10:38:03.860Z,1018.4
2018-02-05T10:39:05.394Z,1018.4
2018-02-05T10:40:07.112Z,1018.4
2018-02-05T10:41:08.553Z,1018.4
2018-02-05T10:42:09.978Z,1018.4
2018-02-05T10:43:11.394Z,1018.4
2018-02-05T10:44:12.858Z,1018.4
2018-02-05T10:45:14.260Z,1018.4
2018-02-05T10:46:15.666Z,1018.3
2018-02-05T10:47:17.141Z,1018.3
2018-02-05T10:48:18.601Z,1018.3
2018-02-05T10:49:20.004Z,1018.3
2018-02-05T10:50:21.479Z,1018.3
2018-02-05T10:51:22.938Z,1018.3
2018-02-05T10:52:24.661Z,1018.3
2018-02-05T10:53:26.094Z,1018.3
2018-02-05T10:54:27.505Z,1018.3
2018-02-05T10:55:28.907Z,1018.3
2018-02-05T10:56:30.321Z,1018.2
2018-02-05T10:57:31.825Z,1018.3
2018-02-05T10:58:33.209Z,1018.2
2018-02-05T10:59:34.607Z,1018.1
2018-02-05T11:00:36.106Z,1018.2
2018-02-05T11:01:37.515Z,1018.1
2018-02-05T11:02:38.962Z,1018.1
2018-02-05T11:03:40.369Z,1018.2
2018-02-05T11:04:41.835Z,1018.1
2018-02-05T11:05:43.288Z,1018.1
2018-02-05T11:06:44.677Z,1018.2
2018-02-05T11:07:46.138Z,1018.0
2018-02-05T11:08:47.624Z,1018.0
2018-02-05T11:09:49.016Z,1018.1
2018-02-05T11:10:50.436Z,1018.0
2018-02-05T11:11:51.885Z,1018.0
2018-02-05T11:12:53.294Z,1018.0
2018-02-05T11:13:54.734Z,1017.9
2018-02-05T11:14:56.139Z,1018.1
2018-02-05T11:15:57.653Z,1018.1
2018-02-05T11:16:59.077Z,1018.0
2018-02-05T11:18:00.528Z,1018.0
2018-02-05T11:19:01.972Z,1018.1
2018-02-05T11:20:03.367Z,1018.0
2018-02-05T11:21:04.792Z,1018.0
2018-02-05T11:22:06.264Z,1017.9
2018-02-05T11:23:07.679Z,1017.9
2018-02-05T11:24:09.148Z,1017.9
2018-02-05T11:25:10.554Z,1018.0
2018-02-05T11:26:12.030Z,1018.0
2018-02-05T11:27:13.557Z,1017.9
2018-02-05T11:28:15.188Z,1018.0
2018-02-05T11:29:16.622Z,1018.0
2018-02-05T11:30:18.004Z,1018.0
2018-02-05T11:31:19.399Z,1018.1
2018-02-05T11:32:20.815Z,1017.9
2018-02-05T11:33:22.254Z,1017.8
2018-02-05T11:34:23.719Z,1018.0
2018-02-05T11:35:25.119Z,1018.0
2018-02-05T11:36:26.581Z,1018.0
2018-02-05T11:37:28.073Z,1018.0
2018-02-05T11:38:29.663Z,1018.0
2018-02-05T11:39:31.191Z,1017.9
2018-02-05T11:40:32.665Z,1018.0
2018-02-05T11:41:34.078Z,1018.1
2018-02-05T11:42:35.564Z,1018.0
2018-02-05T11:43:37.162Z,1018.1
2018-02-05T11:44:38.524Z,1017.9
2018-02-05T11:45:39.928Z,1017.9
2018-02-05T11:46:41.376Z,1017.9
2018-02-05T11:47:42.802Z,1017.9
2018-02-05T11:48:44.245Z,1017.9
2018-02-05T11:49:45.654Z,1017.9
2018-02-05T11:50:47.117Z,1017.9
2018-02-05T11:51:48.527Z,1017.9
2018-02-05T11:52:50.007Z,1017.9
2018-02-05T11:53:51.427Z,1017.9
2018-02-05T11:54:52.841Z,1017.9
2018-02-05T11:55:54.607Z,1017.8
2018-02-05T11:56:56.035Z,1017.8
2018-02-05T11:57:57.648Z,1017.9
2018-02-05T11:58:59.385Z,1017.8
2018-02-05T12:00:00.847Z,1017.9
2018-02-05T12:01:02.519Z,1018.0
2018-02-05T12:02:04.117Z,1017.8
2018-02-05T12:03:05.623Z,1017.8
2018-02-05T12:04:07.020Z,1017.8
2018-02-05T12:05:08.403Z,1017.9
2018-02-05T12:06:09.997Z,1017.8
2018-02-05T12:07:11.813Z,1017.8
2018-02-05T12:08:13.222Z,1017.9
2018-02-05T12:09:14.637Z,1017.7
2018-02-05T12:10:16.108Z,1017.9
2018-02-05T12:11:17.580Z,1017.7
2018-02-05T12:12:19.385Z,1017.7
2018-02-05T12:13:20.817Z,1017.6
2018-02-05T12:14:22.443Z,1017.7
2018-02-05T12:15:24.037Z,1017.6
2018-02-05T12:16:25.443Z,1017.7
2018-02-05T12:17:27.077Z,1017.7
2018-02-05T12:18:28.632Z,1017.5
2018-02-05T12:19:30.444Z,1017.5
2018-02-05T12:20:31.862Z,1017.7
2018-02-05T12:21:33.329Z,1017.6
2018-02-05T12:22:34.799Z,1017.6
2018-02-05T12:23:36.388Z,1017.6
2018-02-05T12:24:37.929Z,1017.7
2018-02-05T12:25:39.320Z,1017.6
2018-02-05T12:26:40.717Z,1017.7
2018-02-05T12:27:42.175Z,1017.7
2018-02-05T12:28:43.880Z,1017.6
2018-02-05T12:29:45.727Z,1017.5
2018-02-05T12:30:47.480Z,1017.6
2018-02-05T12:31:49.048Z,1017.6
2018-02-05T12:32:50.760Z,1017.5
2018-02-05T12:33:52.474Z,1017.6
2018-02-05T12:34:53.851Z,1017.5
2018-02-05T12:35:55.597Z,1017.5
2018-02-05T12:36:57.134Z,1017.6
2018-02-05T12:37:58.586Z,1017.6
2018-02-05T12:38:59.992Z,1017.6
2018-02-05T12:40:01.458Z,1017.6
2018-02-05T12:41:02.863Z,1017.6
2018-02-05T12:42:04.531Z,1017.7
2018-02-05T12:43:06.558Z,1017.7
2018-02-05T12:44:08.079Z,1017.7
2018-02-05T12:45:09.497Z,1017.6
2018-02-05T12:46:10.944Z,1017.7
2018-02-05T12:47:12.390Z,1017.5
2018-02-05T12:48:13.807Z,1017.4